createdAt,value
2023-05-23T00:07:20.008Z,13.74
2023-05-23T00:18:09.603Z,13.88
2023-05-23T00:29:18.471Z,14.01
2023-05-23T00:40:32.991Z,13.92
2023-05-23T00:51:42.875Z,13.68
2023-05-23T01:02:08.583Z,13.36
2023-05-23T01:12:55.164Z,13.05
2023-05-23T01:24:26.549Z,12.82
2023-05-23T01:34:57.089Z,12.85
2023-05-23T01:45:22.456Z,12.84
2023-05-23T01:55:49.658Z,12.76
2023-05-23T02:06:21.470Z,12.99
2023-05-23T02:16:49.128Z,13.26
2023-05-23T02:28:18.715Z,13.29
2023-05-23T02:39:00.184Z,13.13
2023-05-23T02:50:18.605Z,13.00
2023-05-23T03:01:07.603Z,12.92
2023-05-23T03:12:13.858Z,12.89
2023-05-23T03:34:33.645Z,12.83
2023-05-23T03:45:29.736Z,12.86
2023-05-23T03:56:09.009Z,13.23
2023-05-23T04:06:45.811Z,13.63
2023-05-23T04:17:32.019Z,13.67
2023-05-23T04:28:50.851Z,13.44
2023-05-23T04:39:19.837Z,13.41
2023-05-23T04:50:38.093Z,13.80
2023-05-23T05:01:29.910Z,14.51
2023-05-23T05:12:18.493Z,15.07
2023-05-23T05:22:51.598Z,15.43
2023-05-23T05:33:36.810Z,15.74
2023-05-23T05:44:26.715Z,15.79
2023-05-23T05:54:51.992Z,15.85
2023-05-23T06:05:20.651Z,15.62
2023-05-23T06:16:28.972Z,14.94
2023-05-23T06:27:07.830Z,14.94
2023-05-23T06:37:46.055Z,15.26
2023-05-23T06:48:14.512Z,15.70
2023-05-23T06:58:40.366Z,16.05
2023-05-23T07:09:05.206Z,16.49
2023-05-23T07:19:34.039Z,16.91
2023-05-23T07:30:45.429Z,17.08
2023-05-23T07:41:14.327Z,17.13
2023-05-23T07:51:47.133Z,17.34
2023-05-23T08:02:32.002Z,17.65
2023-05-23T08:13:29.923Z,18.30
2023-05-23T08:24:19.063Z,18.83
2023-05-23T08:34:47.526Z,19.55
2023-05-23T08:45:23.789Z,19.87
2023-05-23T08:55:56.827Z,20.42
2023-05-23T09:06:23.581Z,20.89
2023-05-23T09:16:49.730Z,21.22
2023-05-23T09:27:34.029Z,21.07
2023-05-23T09:38:29.956Z,21.13
2023-05-23T09:49:18.904Z,20.95
2023-05-23T09:59:58.807Z,21.35
2023-05-23T10:10:46.911Z,22.04
2023-05-23T10:21:21.956Z,22.24
2023-05-23T10:32:08.058Z,22.40
2023-05-23T10:42:43.805Z,22.03
2023-05-23T10:54:01.763Z,22.48
2023-05-23T11:27:54.511Z,22.83
2023-05-23T11:38:39.746Z,23.05
2023-05-23T11:49:12.143Z,22.76
2023-05-23T12:00:22.157Z,21.98
2023-05-23T12:11:06.581Z,22.46
2023-05-23T12:22:22.856Z,23.12
2023-05-23T12:32:52.001Z,23.66
2023-05-23T12:43:20.908Z,24.00
2023-05-23T12:54:46.929Z,24.53
2023-05-23T13:05:27.961Z,24.92
2023-05-23T13:15:53.131Z,25.02
2023-05-23T13:26:22.530Z,25.01
2023-05-23T13:37:04.404Z,25.31
2023-05-23T13:47:34.009Z,25.77
2023-05-23T13:58:10.575Z,25.47
2023-05-23T14:08:41.687Z,25.16
2023-05-23T14:19:10.437Z,24.68
2023-05-23T14:30:18.029Z,23.68
2023-05-23T14:41:05.361Z,22.62
2023-05-23T14:52:14.615Z,21.99
2023-05-23T15:03:17.863Z,21.64
2023-05-23T15:14:43.776Z,21.46
2023-05-23T15:25:12.527Z,21.04
2023-05-23T15:36:13.551Z,20.56
2023-05-23T15:47:36.019Z,20.43
2023-05-23T15:59:04.874Z,20.75
2023-05-23T16:10:03.952Z,20.99
2023-05-23T16:31:37.117Z,20.83
2023-05-23T16:43:06.620Z,20.92
2023-05-23T16:53:58.590Z,20.90
2023-05-23T17:04:39.980Z,20.74
2023-05-23T17:15:13.818Z,20.62
2023-05-23T17:25:44.365Z,20.15
2023-05-23T17:36:35.447Z,19.74
2023-05-23T17:47:50.970Z,19.27
2023-05-23T17:58:27.176Z,19.00
2023-05-23T18:09:42.730Z,18.73
2023-05-23T18:20:09.067Z,18.49
2023-05-23T18:30:34.308Z,18.24
2023-05-23T18:40:59.962Z,17.94
2023-05-23T18:51:53.994Z,17.63
2023-05-23T19:03:23.365Z,17.41
2023-05-23T19:14:11.977Z,17.19
2023-05-23T19:24:43.800Z,17.00
2023-05-23T19:35:37.574Z,16.82
2023-05-23T19:46:32.998Z,16.70
2023-05-23T19:57:05.629Z,16.60
2023-05-23T20:08:08.512Z,16.49
2023-05-23T20:19:25.189Z,16.33
2023-05-23T21:14:02.270Z,14.62
2023-05-23T21:24:57.289Z,14.50
2023-05-23T21:35:22.770Z,14.29
2023-05-23T21:46:03.275Z,13.97
2023-05-23T21:57:01.064Z,13.75
2023-05-23T22:07:29.665Z,13.56
2023-05-23T22:18:09.985Z,13.42
2023-05-23T22:28:55.440Z,13.15
2023-05-23T22:39:40.652Z,12.88
2023-05-23T22:50:27.377Z,12.58
2023-05-23T23:01:04.447Z,12.25
2023-05-23T23:12:09.889Z,11.93
2023-05-23T23:22:40.522Z,11.65
2023-05-23T23:33:12.201Z,11.28
2023-05-23T23:43:57.968Z,11.08
2023-05-23T23:54:22.167Z,11.13
